sensor_id;sensor_type;location;lat;lon;timestamp;pressure;altitude;pressure_sealevel;temperature
15360;BMP280;7779;49.596;11.070;2024-03-25T00:02:02;97294.09;;;9.27
15360;BMP280;7779;49.596;11.070;2024-03-25T00:04:28;97301.59;;;9.27
15360;BMP280;7779;49.596;11.070;2024-03-25T00:06:54;97304.06;;;9.27
15360;BMP280;7779;49.596;11.070;2024-03-25T00:09:20;97298.28;;;9.28
15360;BMP280;7779;49.596;11.070;2024-03-25T00:11:46;97294.16;;;9.29
15360;BMP280;7779;49.596;11.070;2024-03-25T00:14:11;97298.41;;;9.31
15360;BMP280;7779;49.596;11.070;2024-03-25T00:16:37;97298.41;;;9.31
15360;BMP280;7779;49.596;11.070;2024-03-25T00:19:03;97303.41;;;9.31
15360;BMP280;7779;49.596;11.070;2024-03-25T00:21:29;97292.66;;;9.32
15360;BMP280;7779;49.596;11.070;2024-03-25T00:23:54;97294.28;;;9.32
15360;BMP280;7779;49.596;11.070;2024-03-25T00:26:23;97301.84;;;9.33
15360;BMP280;7779;49.596;11.070;2024-03-25T00:28:49;97294.41;;;9.34
15360;BMP280;7779;49.596;11.070;2024-03-25T00:31:15;97301.19;;;9.37
15360;BMP280;7779;49.596;11.070;2024-03-25T00:33:41;97291.25;;;9.38
15360;BMP280;7779;49.596;11.070;2024-03-25T00:36:07;97298.81;;;9.40
15360;BMP280;7779;49.596;11.070;2024-03-25T00:38:33;97292.25;;;9.42
15360;BMP280;7779;49.596;11.070;2024-03-25T00:40:58;97289.75;;;9.42
15360;BMP280;7779;49.596;11.070;2024-03-25T00:43:24;97288.09;;;9.42
15360;BMP280;7779;49.596;11.070;2024-03-25T00:45:50;97300.59;;;9.42
15360;BMP280;7779;49.596;11.070;2024-03-25T00:48:16;97303.97;;;9.43
15360;BMP280;7779;49.596;11.070;2024-03-25T00:50:41;97300.66;;;9.44
15360;BMP280;7779;49.596;11.070;2024-03-25T00:53:07;97302.38;;;9.45
15360;BMP280;7779;49.596;11.070;2024-03-25T00:55:34;97299.09;;;9.46
15360;BMP280;7779;49.596;11.070;2024-03-25T00:58:02;97295.81;;;9.47
15360;BMP280;7779;49.596;11.070;2024-03-25T01:00:28;97301.59;;;9.46
15360;BMP280;7779;49.596;11.070;2024-03-25T01:02:54;97302.50;;;9.48
15360;BMP280;7779;49.596;11.070;2024-03-25T01:05:19;97305.81;;;9.47
15360;BMP280;7779;49.596;11.070;2024-03-25T01:07:45;97296.66;;;9.47
15360;BMP280;7779;49.596;11.070;2024-03-25T01:10:11;97295.81;;;9.47
15360;BMP280;7779;49.596;11.070;2024-03-25T01:12:36;97293.31;;;9.47
15360;BMP280;7779;49.596;11.070;2024-03-25T01:15:02;97296.66;;;9.47
15360;BMP280;7779;49.596;11.070;2024-03-25T01:17:29;97295.81;;;9.47
15360;BMP280;7779;49.596;11.070;2024-03-25T01:19:54;97301.66;;;9.47
15360;BMP280;7779;49.596;11.070;2024-03-25T01:22:20;97294.09;;;9.46
15360;BMP280;7779;49.596;11.070;2024-03-25T01:24:46;97289.00;;;9.44
15360;BMP280;7779;49.596;11.070;2024-03-25T01:27:11;97300.81;;;9.47
15360;BMP280;7779;49.596;11.070;2024-03-25T01:29:37;97299.09;;;9.46
15360;BMP280;7779;49.596;11.070;2024-03-25T01:32:03;97293.25;;;9.45
15360;BMP280;7779;49.596;11.070;2024-03-25T01:34:31;97302.31;;;9.43
15360;BMP280;7779;49.596;11.070;2024-03-25T01:36:56;97307.25;;;9.42
15360;BMP280;7779;49.596;11.070;2024-03-25T01:39:23;97311.47;;;9.43
15360;BMP280;7779;49.596;11.070;2024-03-25T01:41:50;97308.97;;;9.43
15360;BMP280;7779;49.596;11.070;2024-03-25T01:44:16;97305.66;;;9.44
15360;BMP280;7779;49.596;11.070;2024-03-25T01:46:42;97308.16;;;9.44
15360;BMP280;7779;49.596;11.070;2024-03-25T01:49:08;97308.25;;;9.45
15360;BMP280;7779;49.596;11.070;2024-03-25T01:51:36;97309.09;;;9.46
15360;BMP280;7779;49.596;11.070;2024-03-25T01:54:04;97311.66;;;9.47
15360;BMP280;7779;49.596;11.070;2024-03-25T01:56:33;97316.72;;;9.49
15360;BMP280;7779;49.596;11.070;2024-03-25T01:59:00;97315.91;;;9.50
15360;BMP280;7779;49.596;11.070;2024-03-25T02:01:27;97310.16;;;9.51
15360;BMP280;7779;49.596;11.070;2024-03-25T02:03:55;97319.38;;;9.52
15360;BMP280;7779;49.596;11.070;2024-03-25T02:06:22;97319.47;;;9.55
15360;BMP280;7779;49.596;11.070;2024-03-25T02:08:50;97324.47;;;9.55
15360;BMP280;7779;49.596;11.070;2024-03-25T02:11:17;97318.72;;;9.56
15360;BMP280;7779;49.596;11.070;2024-03-25T02:13:42;97321.22;;;9.56
15360;BMP280;7779;49.596;11.070;2024-03-25T02:16:08;97316.22;;;9.56
15360;BMP280;7779;49.596;11.070;2024-03-25T02:18:34;97321.22;;;9.56
15360;BMP280;7779;49.596;11.070;2024-03-25T02:21:00;97318.63;;;9.54
15360;BMP280;7779;49.596;11.070;2024-03-25T02:23:27;97320.34;;;9.55
15360;BMP280;7779;49.596;11.070;2024-03-25T02:25:53;97318.78;;;9.57
15360;BMP280;7779;49.596;11.070;2024-03-25T02:28:20;97326.22;;;9.56
15360;BMP280;7779;49.596;11.070;2024-03-25T02:30:46;97324.47;;;9.55
15360;BMP280;7779;49.596;11.070;2024-03-25T02:33:13;97320.28;;;9.54
15360;BMP280;7779;49.596;11.070;2024-03-25T02:35:41;97326.06;;;9.53
15360;BMP280;7779;49.596;11.070;2024-03-25T02:38:08;97324.41;;;9.53
15360;BMP280;7779;49.596;11.070;2024-03-25T02:40:35;97327.66;;;9.51
15360;BMP280;7779;49.596;11.070;2024-03-25T02:43:01;97328.41;;;9.50
15360;BMP280;7779;49.596;11.070;2024-03-25T02:45:27;97330.06;;;9.49
15360;BMP280;7779;49.596;11.070;2024-03-25T02:47:53;97324.22;;;9.49
15360;BMP280;7779;49.596;11.070;2024-03-25T02:50:19;97331.81;;;9.50
15360;BMP280;7779;49.596;11.070;2024-03-25T02:52:45;97329.22;;;9.49
15360;BMP280;7779;49.596;11.070;2024-03-25T02:55:10;97331.81;;;9.50
15360;BMP280;7779;49.596;11.070;2024-03-25T02:57:36;97341.00;;;9.51
15360;BMP280;7779;49.596;11.070;2024-03-25T03:00:02;97338.56;;;9.53
15360;BMP280;7779;49.596;11.070;2024-03-25T03:02:29;97334.38;;;9.52
15360;BMP280;7779;49.596;11.070;2024-03-25T03:04:54;97331.00;;;9.51
15360;BMP280;7779;49.596;11.070;2024-03-25T03:07:20;97333.50;;;9.51
15360;BMP280;7779;49.596;11.070;2024-03-25T03:09:46;97332.66;;;9.51
15360;BMP280;7779;49.596;11.070;2024-03-25T03:12:12;97333.50;;;9.51
15360;BMP280;7779;49.596;11.070;2024-03-25T03:14:37;97330.91;;;9.50
15360;BMP280;7779;49.596;11.070;2024-03-25T03:17:03;97338.41;;;9.50
15360;BMP280;7779;49.596;11.070;2024-03-25T03:19:31;97337.66;;;9.51
15360;BMP280;7779;49.596;11.070;2024-03-25T03:21:57;97339.38;;;9.52
15360;BMP280;7779;49.596;11.070;2024-03-25T03:24:23;97341.88;;;9.52
15360;BMP280;7779;49.596;11.070;2024-03-25T03:26:49;97335.28;;;9.54
15360;BMP280;7779;49.596;11.070;2024-03-25T03:29:15;97336.97;;;9.55
15360;BMP280;7779;49.596;11.070;2024-03-25T03:31:41;97341.97;;;9.55
15360;BMP280;7779;49.596;11.070;2024-03-25T03:34:07;97345.31;;;9.55
15360;BMP280;7779;49.596;11.070;2024-03-25T03:36:32;97343.78;;;9.57
15360;BMP280;7779;49.596;11.070;2024-03-25T03:38:58;97352.13;;;9.58
15360;BMP280;7779;49.596;11.070;2024-03-25T03:41:24;97351.28;;;9.57
15360;BMP280;7779;49.596;11.070;2024-03-25T03:43:49;97352.91;;;9.57
15360;BMP280;7779;49.596;11.070;2024-03-25T03:46:15;97357.06;;;9.56
15360;BMP280;7779;49.596;11.070;2024-03-25T03:48:41;97355.41;;;9.57
15360;BMP280;7779;49.596;11.070;2024-03-25T03:51:08;97361.22;;;9.56
15360;BMP280;7779;49.596;11.070;2024-03-25T03:53:35;97366.97;;;9.55
15360;BMP280;7779;49.596;11.070;2024-03-25T03:56:03;97369.47;;;9.55
15360;BMP280;7779;49.596;11.070;2024-03-25T03:58:33;97371.06;;;9.53
15360;BMP280;7779;49.596;11.070;2024-03-25T04:01:00;97363.41;;;9.50
15360;BMP280;7779;49.596;11.070;2024-03-25T04:03:26;97371.72;;;9.49
15360;BMP280;7779;49.596;11.070;2024-03-25T04:05:52;97370.81;;;9.47
15360;BMP280;7779;49.596;11.070;2024-03-25T04:08:18;97378.31;;;9.47
15360;BMP280;7779;49.596;11.070;2024-03-25T04:10:44;97374.06;;;9.46
15360;BMP280;7779;49.596;11.070;2024-03-25T04:13:11;97383.22;;;9.45
15360;BMP280;7779;49.596;11.070;2024-03-25T04:15:38;97381.50;;;9.44
15360;BMP280;7779;49.596;11.070;2024-03-25T04:18:05;97383.06;;;9.42
15360;BMP280;7779;49.596;11.070;2024-03-25T04:20:41;97385.53;;;9.41
15360;BMP280;7779;49.596;11.070;2024-03-25T04:23:07;97374.66;;;9.40
15360;BMP280;7779;49.596;11.070;2024-03-25T04:25:36;97383.81;;;9.40
15360;BMP280;7779;49.596;11.070;2024-03-25T04:28:06;97382.88;;;9.38
15360;BMP280;7779;49.596;11.070;2024-03-25T04:30:32;97383.66;;;9.37
15360;BMP280;7779;49.596;11.070;2024-03-25T04:32:58;97383.53;;;9.34
15360;BMP280;7779;49.596;11.070;2024-03-25T04:35:24;97391.81;;;9.33
15360;BMP280;7779;49.596;11.070;2024-03-25T04:37:50;97389.25;;;9.32
15360;BMP280;7779;49.596;11.070;2024-03-25T04:40:16;97391.66;;;9.30
15360;BMP280;7779;49.596;11.070;2024-03-25T04:42:45;97384.03;;;9.27
15360;BMP280;7779;49.596;11.070;2024-03-25T04:45:10;97386.53;;;9.27
15360;BMP280;7779;49.596;11.070;2024-03-25T04:47:38;97390.69;;;9.27
15360;BMP280;7779;49.596;11.070;2024-03-25T04:50:04;97400.63;;;9.25
15360;BMP280;7779;49.596;11.070;2024-03-25T04:52:31;97408.13;;;9.25
15360;BMP280;7779;49.596;11.070;2024-03-25T04:54:56;97413.81;;;9.23
15360;BMP280;7779;49.596;11.070;2024-03-25T04:57:22;97408.75;;;9.21
15360;BMP280;7779;49.596;11.070;2024-03-25T04:59:48;97417.94;;;9.22
15360;BMP280;7779;49.596;11.070;2024-03-25T05:02:14;97416.25;;;9.21
15360;BMP280;7779;49.596;11.070;2024-03-25T05:04:40;97422.03;;;9.20
15360;BMP280;7779;49.596;11.070;2024-03-25T05:07:06;97416.19;;;9.20
15360;BMP280;7779;49.596;11.070;2024-03-25T05:09:32;97422.78;;;9.19
15360;BMP280;7779;49.596;11.070;2024-03-25T05:11:57;97419.53;;;9.20
15360;BMP280;7779;49.596;11.070;2024-03-25T05:14:23;97422.03;;;9.20
15360;BMP280;7779;49.596;11.070;2024-03-25T05:16:49;97425.38;;;9.21
15360;BMP280;7779;49.596;11.070;2024-03-25T05:19:15;97423.69;;;9.20
15360;BMP280;7779;49.596;11.070;2024-03-25T05:21:41;97433.59;;;9.18
15360;BMP280;7779;49.596;11.070;2024-03-25T05:24:07;97435.28;;;9.19
15360;BMP280;7779;49.596;11.070;2024-03-25T05:26:32;97436.25;;;9.21
15360;BMP280;7779;49.596;11.070;2024-03-25T05:28:58;97437.00;;;9.20
15360;BMP280;7779;49.596;11.070;2024-03-25T05:31:24;97437.94;;;9.22
15360;BMP280;7779;49.596;11.070;2024-03-25T05:33:50;97440.44;;;9.22
15360;BMP280;7779;49.596;11.070;2024-03-25T05:36:16;97441.44;;;9.26
15360;BMP280;7779;49.596;11.070;2024-03-25T05:38:42;97434.78;;;9.26
15360;BMP280;7779;49.596;11.070;2024-03-25T05:41:09;97437.38;;;9.28
15360;BMP280;7779;49.596;11.070;2024-03-25T05:43:35;97440.72;;;9.28
15360;BMP280;7779;49.596;11.070;2024-03-25T05:46:01;97441.63;;;9.30
15360;BMP280;7779;49.596;11.070;2024-03-25T05:48:28;97439.94;;;9.29
15360;BMP280;7779;49.596;11.070;2024-03-25T05:51:12;97437.63;;;9.33
15360;BMP280;7779;49.596;11.070;2024-03-25T05:53:37;97438.53;;;9.34
15360;BMP280;7779;49.596;11.070;2024-03-25T05:56:04;97447.78;;;9.36
15360;BMP280;7779;49.596;11.070;2024-03-25T05:58:29;97445.38;;;9.38
15360;BMP280;7779;49.596;11.070;2024-03-25T06:00:56;97445.38;;;9.38
15360;BMP280;7779;49.596;11.070;2024-03-25T06:03:22;97446.38;;;9.41
15360;BMP280;7779;49.596;11.070;2024-03-25T06:05:48;97438.94;;;9.43
15360;BMP280;7779;49.596;11.070;2024-03-25T06:08:15;97448.22;;;9.45
15360;BMP280;7779;49.596;11.070;2024-03-25T06:10:51;97443.28;;;9.47
15360;BMP280;7779;49.596;11.070;2024-03-25T06:13:17;97455.91;;;9.50
15360;BMP280;7779;49.596;11.070;2024-03-25T06:15:43;97440.91;;;9.50
15360;BMP280;7779;49.596;11.070;2024-03-25T06:18:08;97448.63;;;9.54
15360;BMP280;7779;49.596;11.070;2024-03-25T06:20:34;97456.34;;;9.59
15360;BMP280;7779;49.596;11.070;2024-03-25T06:23:00;97446.47;;;9.62
15360;BMP280;7779;49.596;11.070;2024-03-25T06:25:27;97448.47;;;9.69
15360;BMP280;7779;49.596;11.070;2024-03-25T06:27:56;97442.03;;;9.73
15360;BMP280;7779;49.596;11.070;2024-03-25T06:30:22;97446.47;;;9.79
15360;BMP280;7779;49.596;11.070;2024-03-25T06:33:07;97454.31;;;9.86
15360;BMP280;7779;49.596;11.070;2024-03-25T06:35:51;97447.91;;;9.91
15360;BMP280;7779;49.596;11.070;2024-03-25T06:38:20;97454.16;;;10.01
15360;BMP280;7779;49.596;11.070;2024-03-25T06:40:46;97447.75;;;10.07
15360;BMP280;7779;49.596;11.070;2024-03-25T06:43:12;97463.84;;;10.12
15360;BMP280;7779;49.596;11.070;2024-03-25T06:45:38;97461.53;;;10.16
15360;BMP280;7779;49.596;11.070;2024-03-25T06:48:04;97464.22;;;10.21
15360;BMP280;7779;49.596;11.070;2024-03-25T06:50:30;97462.78;;;10.26
15360;BMP280;7779;49.596;11.070;2024-03-25T06:52:56;97467.19;;;10.31
15360;BMP280;7779;49.596;11.070;2024-03-25T06:55:22;97465.03;;;10.39
15360;BMP280;7779;49.596;11.070;2024-03-25T06:57:53;97474.44;;;10.44
15360;BMP280;7779;49.596;11.070;2024-03-25T07:00:19;97468.00;;;10.49
15360;BMP280;7779;49.596;11.070;2024-03-25T07:02:48;97479.09;;;10.55
15360;BMP280;7779;49.596;11.070;2024-03-25T07:05:14;97473.44;;;10.59
15360;BMP280;7779;49.596;11.070;2024-03-25T07:07:40;97478.72;;;10.65
15360;BMP280;7779;49.596;11.070;2024-03-25T07:10:06;97472.19;;;10.69
15360;BMP280;7779;49.596;11.070;2024-03-25T07:12:32;97472.44;;;10.75
15360;BMP280;7779;49.596;11.070;2024-03-25T07:14:57;97474.41;;;10.82
15360;BMP280;7779;49.596;11.070;2024-03-25T07:17:23;97485.50;;;10.88
15360;BMP280;7779;49.596;11.070;2024-03-25T07:19:51;97482.47;;;10.95
15360;BMP280;7779;49.596;11.070;2024-03-25T07:22:16;97479.28;;;10.99
15360;BMP280;7779;49.596;11.070;2024-03-25T07:24:42;97480.25;;;11.02
15360;BMP280;7779;49.596;11.070;2024-03-25T07:27:08;97485.47;;;11.07
15360;BMP280;7779;49.596;11.070;2024-03-25T07:29:35;97492.47;;;11.14
15360;BMP280;7779;49.596;11.070;2024-03-25T07:32:01;97489.34;;;11.19
15360;BMP280;7779;49.596;11.070;2024-03-25T07:34:26;97495.38;;;11.24
15360;BMP280;7779;49.596;11.070;2024-03-25T07:36:52;97492.25;;;11.29
15360;BMP280;7779;49.596;11.070;2024-03-25T07:39:18;97491.69;;;11.36
15360;BMP280;7779;49.596;11.070;2024-03-25T07:41:44;97494.59;;;11.45
15360;BMP280;7779;49.596;11.070;2024-03-25T07:44:09;97494.97;;;11.54
15360;BMP280;7779;49.596;11.070;2024-03-25T07:46:35;97497.03;;;11.64
15360;BMP280;7779;49.596;11.070;2024-03-25T07:49:01;97494.06;;;11.74
15360;BMP280;7779;49.596;11.070;2024-03-25T07:51:26;97494.41;;;11.83
15360;BMP280;7779;49.596;11.070;2024-03-25T07:53:52;97498.94;;;11.91
15360;BMP280;7779;49.596;11.070;2024-03-25T07:56:18;97495.81;;;11.97
15360;BMP280;7779;49.596;11.070;2024-03-25T07:58:44;97499.44;;;12.05
15360;BMP280;7779;49.596;11.070;2024-03-25T08:01:10;97505.72;;;12.15
15360;BMP280;7779;49.596;11.070;2024-03-25T08:03:35;97497.81;;;12.28
15360;BMP280;7779;49.596;11.070;2024-03-25T08:06:01;97505.88;;;12.43
15360;BMP280;7779;49.596;11.070;2024-03-25T08:08:27;97508.00;;;12.54
15360;BMP280;7779;49.596;11.070;2024-03-25T08:10:53;97507.69;;;12.69
15360;BMP280;7779;49.596;11.070;2024-03-25T08:13:19;97502.97;;;12.78
15360;BMP280;7779;49.596;11.070;2024-03-25T08:15:48;97505.78;;;12.85
15360;BMP280;7779;49.596;11.070;2024-03-25T08:18:13;97503.63;;;12.95
15360;BMP280;7779;49.596;11.070;2024-03-25T08:20:39;97508.91;;;13.03
15360;BMP280;7779;49.596;11.070;2024-03-25T08:23:05;97507.50;;;13.11
15360;BMP280;7779;49.596;11.070;2024-03-25T08:25:31;97512.75;;;13.18
15360;BMP280;7779;49.596;11.070;2024-03-25T08:27:57;97504.50;;;13.22
15360;BMP280;7779;49.596;11.070;2024-03-25T08:30:24;97503.78;;;13.25
15360;BMP280;7779;49.596;11.070;2024-03-25T08:32:50;97511.44;;;13.29
15360;BMP280;7779;49.596;11.070;2024-03-25T08:35:16;97516.69;;;13.35
15360;BMP280;7779;49.596;11.070;2024-03-25T08:37:42;97500.13;;;13.41
15360;BMP280;7779;49.596;11.070;2024-03-25T08:40:09;97500.41;;;13.50
15360;BMP280;7779;49.596;11.070;2024-03-25T08:42:34;97505.78;;;13.61
15360;BMP280;7779;49.596;11.070;2024-03-25T08:45:00;97499.25;;;13.67
15360;BMP280;7779;49.596;11.070;2024-03-25T08:47:26;97501.03;;;13.69
15360;BMP280;7779;49.596;11.070;2024-03-25T08:49:52;97495.19;;;13.70
15360;BMP280;7779;49.596;11.070;2024-03-25T08:52:18;97504.47;;;13.71
15360;BMP280;7779;49.596;11.070;2024-03-25T08:54:43;97495.28;;;13.73
15360;BMP280;7779;49.596;11.070;2024-03-25T08:57:09;97502.22;;;13.80
15360;BMP280;7779;49.596;11.070;2024-03-25T08:59:35;97495.75;;;13.88
15360;BMP280;7779;49.596;11.070;2024-03-25T09:02:01;97480.91;;;13.97
15360;BMP280;7779;49.596;11.070;2024-03-25T09:04:27;97488.66;;;14.03
15360;BMP280;7779;49.596;11.070;2024-03-25T09:06:53;97492.91;;;14.04
15360;BMP280;7779;49.596;11.070;2024-03-25T09:09:18;97488.66;;;14.02
15360;BMP280;7779;49.596;11.070;2024-03-25T09:12:02;97493.50;;;13.97
15360;BMP280;7779;49.596;11.070;2024-03-25T09:14:28;97495.13;;;13.95
15360;BMP280;7779;49.596;11.070;2024-03-25T09:16:54;97489.25;;;13.95
15360;BMP280;7779;49.596;11.070;2024-03-25T09:19:20;97482.63;;;13.98
15360;BMP280;7779;49.596;11.070;2024-03-25T09:21:45;97485.34;;;14.04
15360;BMP280;7779;49.596;11.070;2024-03-25T09:24:11;97481.31;;;14.09
15360;BMP280;7779;49.596;11.070;2024-03-25T09:26:37;97486.47;;;14.13
15360;BMP280;7779;49.596;11.070;2024-03-25T09:29:03;97475.53;;;14.13
15360;BMP280;7779;49.596;11.070;2024-03-25T09:31:28;97473.06;;;14.14
15360;BMP280;7779;49.596;11.070;2024-03-25T09:33:54;97481.44;;;14.13
15360;BMP280;7779;49.596;11.070;2024-03-25T09:36:20;97480.69;;;14.16
15360;BMP280;7779;49.596;11.070;2024-03-25T09:38:48;97474.03;;;14.18
15360;BMP280;7779;49.596;11.070;2024-03-25T09:41:13;97474.09;;;14.21
15360;BMP280;7779;49.596;11.070;2024-03-25T09:43:48;97475.13;;;14.27
15360;BMP280;7779;49.596;11.070;2024-03-25T09:46:17;97473.72;;;14.37
15360;BMP280;7779;49.596;11.070;2024-03-25T09:48:43;97474.06;;;14.50
15360;BMP280;7779;49.596;11.070;2024-03-25T09:51:09;97475.44;;;14.68
15360;BMP280;7779;49.596;11.070;2024-03-25T09:53:35;97472.44;;;14.81
15360;BMP280;7779;49.596;11.070;2024-03-25T09:56:01;97471.03;;;14.92
15360;BMP280;7779;49.596;11.070;2024-03-25T09:58:27;97466.28;;;15.04
15360;BMP280;7779;49.596;11.070;2024-03-25T10:00:54;97459.97;;;15.18
15360;BMP280;7779;49.596;11.070;2024-03-25T10:03:21;97452.56;;;15.25
15360;BMP280;7779;49.596;11.070;2024-03-25T10:05:47;97456.88;;;15.29
15360;BMP280;7779;49.596;11.070;2024-03-25T10:08:13;97457.84;;;15.34
15360;BMP280;7779;49.596;11.070;2024-03-25T10:10:39;97459.66;;;15.39
15360;BMP280;7779;49.596;11.070;2024-03-25T10:13:06;97457.13;;;15.39
15360;BMP280;7779;49.596;11.070;2024-03-25T10:15:33;97454.66;;;15.41
15360;BMP280;7779;49.596;11.070;2024-03-25T10:17:59;97447.88;;;15.40
15360;BMP280;7779;49.596;11.070;2024-03-25T10:20:24;97450.44;;;15.41
15360;BMP280;7779;49.596;11.070;2024-03-25T10:22:51;97434.44;;;15.41
15360;BMP280;7779;49.596;11.070;2024-03-25T10:25:22;97440.50;;;15.47
15360;BMP280;7779;49.596;11.070;2024-03-25T10:27:59;97425.44;;;15.52
15360;BMP280;7779;49.596;11.070;2024-03-25T10:30:26;97435.59;;;15.53
15360;BMP280;7779;49.596;11.070;2024-03-25T10:33:06;97433.16;;;15.58
15360;BMP280;7779;49.596;11.070;2024-03-25T10:35:36;97431.56;;;15.61
15360;BMP280;7779;49.596;11.070;2024-03-25T10:38:07;97434.97;;;15.63
15360;BMP280;7779;49.596;11.070;2024-03-25T10:40:38;97424.78;;;15.59
15360;BMP280;7779;49.596;11.070;2024-03-25T10:43:11;97432.19;;;15.51
15360;BMP280;7779;49.596;11.070;2024-03-25T10:45:47;97425.16;;;15.38
15360;BMP280;7779;49.596;11.070;2024-03-25T10:48:39;97428.88;;;15.19
15360;BMP280;7779;49.596;11.070;2024-03-25T10:51:07;97432.59;;;15.02
15360;BMP280;7779;49.596;11.070;2024-03-25T10:53:36;97421.34;;;14.88
15360;BMP280;7779;49.596;11.070;2024-03-25T10:56:05;97420.22;;;14.77
15360;BMP280;7779;49.596;11.070;2024-03-25T10:58:34;97415.88;;;14.72
15360;BMP280;7779;49.596;11.070;2024-03-25T11:01:00;97411.69;;;14.72
15360;BMP280;7779;49.596;11.070;2024-03-25T11:03:27;97406.94;;;14.84
15360;BMP280;7779;49.596;11.070;2024-03-25T11:05:53;97401.41;;;14.98
15360;BMP280;7779;49.596;11.070;2024-03-25T11:08:19;97398.56;;;15.17
15360;BMP280;7779;49.596;11.070;2024-03-25T11:10:49;97382.94;;;15.31
15360;BMP280;7779;49.596;11.070;2024-03-25T11:13:18;97391.63;;;15.45
15360;BMP280;7779;49.596;11.070;2024-03-25T11:15:47;97389.34;;;15.56
15360;BMP280;7779;49.596;11.070;2024-03-25T11:18:14;97381.13;;;15.64
15360;BMP280;7779;49.596;11.070;2024-03-25T11:20:42;97377.88;;;15.69
15360;BMP280;7779;49.596;11.070;2024-03-25T11:23:12;97382.13;;;15.72
15360;BMP280;7779;49.596;11.070;2024-03-25T11:25:41;97375.44;;;15.74
15360;BMP280;7779;49.596;11.070;2024-03-25T11:28:09;97366.28;;;15.77
15360;BMP280;7779;49.596;11.070;2024-03-25T11:30:36;97365.34;;;15.74
15360;BMP280;7779;49.596;11.070;2024-03-25T11:33:03;97357.59;;;15.65
15360;BMP280;7779;49.596;11.070;2024-03-25T11:35:37;97361.50;;;15.51
15360;BMP280;7779;49.596;11.070;2024-03-25T11:38:03;97362.03;;;15.37
15360;BMP280;7779;49.596;11.070;2024-03-25T11:40:29;97353.28;;;15.23
15360;BMP280;7779;49.596;11.070;2024-03-25T11:42:55;97353.84;;;15.12
15360;BMP280;7779;49.596;11.070;2024-03-25T11:45:21;97356.97;;;15.03
15360;BMP280;7779;49.596;11.070;2024-03-25T11:47:49;97366.91;;;14.96
15360;BMP280;7779;49.596;11.070;2024-03-25T11:50:18;97365.09;;;14.90
15360;BMP280;7779;49.596;11.070;2024-03-25T11:52:45;97361.63;;;14.87
15360;BMP280;7779;49.596;11.070;2024-03-25T11:55:16;97353.19;;;14.85
15360;BMP280;7779;49.596;11.070;2024-03-25T11:57:42;97356.50;;;14.84
15360;BMP280;7779;49.596;11.070;2024-03-25T12:00:09;97357.34;;;14.83
15360;BMP280;7779;49.596;11.070;2024-03-25T12:02:46;97354.94;;;14.89
15360;BMP280;7779;49.596;11.070;2024-03-25T12:05:16;97341.69;;;14.96
15360;BMP280;7779;49.596;11.070;2024-03-25T12:07:42;97333.44;;;15.03
15360;BMP280;7779;49.596;11.070;2024-03-25T12:10:08;97331.88;;;15.08
15360;BMP280;7779;49.596;11.070;2024-03-25T12:12:53;97333.66;;;15.12
15360;BMP280;7779;49.596;11.070;2024-03-25T12:15:22;97335.50;;;15.17
15360;BMP280;7779;49.596;11.070;2024-03-25T12:17:48;97334.75;;;15.21
15360;BMP280;7779;49.596;11.070;2024-03-25T12:20:16;97335.66;;;15.24
15360;BMP280;7779;49.596;11.070;2024-03-25T12:22:44;97328.97;;;15.26
15360;BMP280;7779;49.596;11.070;2024-03-25T12:25:10;97329.06;;;15.29
15360;BMP280;7779;49.596;11.070;2024-03-25T12:27:38;97323.22;;;15.32
15360;BMP280;7779;49.596;11.070;2024-03-25T12:30:07;97320.72;;;15.33
15360;BMP280;7779;49.596;11.070;2024-03-25T12:32:37;97321.66;;;15.37
15360;BMP280;7779;49.596;11.070;2024-03-25T12:35:10;97312.44;;;15.39
15360;BMP280;7779;49.596;11.070;2024-03-25T12:37:41;97307.34;;;15.37
15360;BMP280;7779;49.596;11.070;2024-03-25T12:40:10;97306.56;;;15.40
15360;BMP280;7779;49.596;11.070;2024-03-25T12:42:37;97302.38;;;15.40
15360;BMP280;7779;49.596;11.070;2024-03-25T12:45:03;97292.28;;;15.42
15360;BMP280;7779;49.596;11.070;2024-03-25T12:47:30;97293.19;;;15.44
15360;BMP280;7779;49.596;11.070;2024-03-25T12:49:58;97283.09;;;15.44
15360;BMP280;7779;49.596;11.070;2024-03-25T12:52:24;97294.03;;;15.44
15360;BMP280;7779;49.596;11.070;2024-03-25T12:54:50;97290.66;;;15.42
15360;BMP280;7779;49.596;11.070;2024-03-25T12:57:16;97285.53;;;15.39
15360;BMP280;7779;49.596;11.070;2024-03-25T12:59:43;97286.28;;;15.35
15360;BMP280;7779;49.596;11.070;2024-03-25T13:02:11;97279.44;;;15.30
15360;BMP280;7779;49.596;11.070;2024-03-25T13:04:38;97281.00;;;15.25
15360;BMP280;7779;49.596;11.070;2024-03-25T13:07:05;97283.41;;;15.19
15360;BMP280;7779;49.596;11.070;2024-03-25T13:09:31;97274.91;;;15.16
15360;BMP280;7779;49.596;11.070;2024-03-25T13:11:58;97274.91;;;15.16
15360;BMP280;7779;49.596;11.070;2024-03-25T13:14:24;97271.56;;;15.15
15360;BMP280;7779;49.596;11.070;2024-03-25T13:16:50;97266.50;;;15.15
15360;BMP280;7779;49.596;11.070;2024-03-25T13:19:16;97263.19;;;15.18
15360;BMP280;7779;49.596;11.070;2024-03-25T13:21:42;97257.28;;;15.17
15360;BMP280;7779;49.596;11.070;2024-03-25T13:24:08;97255.53;;;15.15
15360;BMP280;7779;49.596;11.070;2024-03-25T13:26:34;97241.97;;;15.11
15360;BMP280;7779;49.596;11.070;2024-03-25T13:29:00;97244.50;;;15.10
15360;BMP280;7779;49.596;11.070;2024-03-25T13:31:26;97239.44;;;15.10
15360;BMP280;7779;49.596;11.070;2024-03-25T13:33:52;97238.56;;;15.08
15360;BMP280;7779;49.596;11.070;2024-03-25T13:36:18;97229.28;;;15.07
15360;BMP280;7779;49.596;11.070;2024-03-25T13:38:44;97240.22;;;15.07
15360;BMP280;7779;49.596;11.070;2024-03-25T13:41:10;97229.31;;;15.08
15360;BMP280;7779;49.596;11.070;2024-03-25T13:43:42;97223.47;;;15.11
15360;BMP280;7779;49.596;11.070;2024-03-25T13:46:08;97225.19;;;15.12
15360;BMP280;7779;49.596;11.070;2024-03-25T13:48:34;97220.19;;;15.13
15360;BMP280;7779;49.596;11.070;2024-03-25T13:51:00;97223.66;;;15.17
15360;BMP280;7779;49.596;11.070;2024-03-25T13:53:26;97209.41;;;15.19
15360;BMP280;7779;49.596;11.070;2024-03-25T13:55:52;97209.44;;;15.22
15360;BMP280;7779;49.596;11.070;2024-03-25T13:58:18;97200.22;;;15.23
15360;BMP280;7779;49.596;11.070;2024-03-25T14:00:43;97193.53;;;15.25
15360;BMP280;7779;49.596;11.070;2024-03-25T14:03:09;97187.69;;;15.26
15360;BMP280;7779;49.596;11.070;2024-03-25T14:05:34;97186.00;;;15.27
15360;BMP280;7779;49.596;11.070;2024-03-25T14:08:01;97184.38;;;15.27
15360;BMP280;7779;49.596;11.070;2024-03-25T14:10:27;97182.72;;;15.29
15360;BMP280;7779;49.596;11.070;2024-03-25T14:12:53;97172.63;;;15.29